To NAV CANADA Home Page Login to a new session Search on AWWS site Feedback and Comments Disclaimer Vers la page française équivalente Tips FAQ What's new on the site To the Forecasts and Observations / NOTAM section To "File a Flight Plan" website Publications and other links Update of the User's profile FIC Telephone Numbers My Weather Data Folder Route Weather Data Regional Weather Data Local Weather Data To the Forecasts and Observations / NOTAM section
Request Generated 02/24/2017 at 03:38:51 UTC . Weather information available at that time is displayed.

METAR/TAF

SWIFT CURRENT/SK    (show WxCam)

METAR CYYN 240300Z AUTO 19007KT 9SM OVC032 M05/M08 A3007 RMK SLP232=
METAR CYYN 240200Z AUTO 19005KT 9SM OVC032 M05/M08 A3008 RMK SLP233=
SPECI CYYN 240148Z AUTO 18006KT 9SM OVC032 M05/M08 A3007 RMK SLP232=
SPECI CYYN 240121Z AUTO 20006KT 9SM -SN OVC032 M05/M08 A3007 RMK
SLP232=
METAR CYYN 240100Z AUTO 19005KT 9SM OVC032 M05/M08 A3007 RMK SLP231=

TAF AMD CYYN 240122Z 2401/2412 19005KT P6SM OVC030 TEMPO 2401/2409
4SM -SN OVC020
FM240900 14008KT 6SM -SN OVC025 TEMPO 2409/2412 1SM -SHSN VV010
RMK FCST BASED ON AUTO OBS. NXT FCST BY 240600Z=
Your time UTC time
Weather data provided by Environment Canada and NAV CANADA